Kezdőlap
METAR-TAF:

METAR-TAF

Repülőterek :

Arad, Románia

földrajzi szélesség: 46-12N, földrajzi hosszúság: 021-24E, magasság: 117 m

Jelenlegi meteorológiai megfigyelések

A jelentés 29 perccel ezelõtt készült, 18:30 UTC
Nyugati szél 4 kt
Hőmérséklet 15°C
Páratartalom 77%
Légköri nyomás 1021 hPa
Látótávolság: 6000 m

METAR: LRAR 201830Z AUTO 27004KT 6000 FEW032/// 15/11 Q1021

Idő: 21:59 (18:59 UTC)

Előrejelzés

A jelentés 4 órával és 59 perccel ezelõtt készült, 14:00 UTC
Az előrejelzés 20-én 15 óra UTC és 20-én 24 óra UTC között érvényes
Észak-északnyugati szél 6 kt
Látótávolság: 5000 m
Párásság
20-én 21 óra UTC és 20-én 24 óra UTC között ideiglenes
Látótávolság: 1500 m
Szakadozott felhőzet 500 lábon
Párásság

TAF: LRAR 201400Z 2015/2024 33006KT 5000 BR NSC TEMPO 2021/2024 1500 BR BKN005

Meteorológiai megfigyelések és előrejelzések több, mint 4000 repülőtéren (METAR és TAF jelentéseket).

A térképen piros és sárga pontok jelzik az elérhető meteorológiai állomásokat.

Mozgassa az egeret a pont fölött, hogy megjelenjen az állomás neve.

Azután kattintson az időjárási megfigyelések és előrejelzések megtekintéséhez.

A térkép megváltoztatása: kattintson a fekete keresztel jelölt zöld gombra ráközelítéshez, a vonallal jelölt zöld gombra távolításhoz, vagy a zöld nyilakra a szomszédos térképek eléréséhez.


METAR-TAF: